Date,TemperatureHighF,TemperatureAvgF,TemperatureLowF,DewpointHighF,DewpointAvgF,DewpointLowF,HumidityHigh,HumidityAvg,HumidityLow,PressureMaxIn,PressureMinIn,WindSpeedMaxMPH,WindSpeedAvgMPH,GustSpeedMaxMPH,PrecipitationSumIn
2013-2-1,28,24,19,22,12,5,86,63,51,30.26,29.66,27,7,29,0.00
2013-2-2,28,22,13,18,11,6,94,68,48,30.26,29.98,20,4,23,0.00
2013-2-3,29,24,18,21,16,13,97,78,55,30.07,29.79,14,1,17,0.00
2013-2-4,25,22,17,20,14,9,88,75,56,30.03,29.79,21,4,24,0.00
2013-2-5,29,24,18,25,15,10,96,72,53,30.03,29.87,11,2,12,0.00
2013-2-6,34,27,16,28,17,3,97,71,35,30.51,29.87,29,5,29,0.00
2013-2-7,26,21,15,12,7,4,76,59,45,30.55,30.21,11,3,11,0.00
2013-2-8,30,24,20,28,20,8,100,86,61,30.37,29.82,21,4,22,0.00
2013-2-9,27,18,4,24,10,-2,100,75,49,30.54,29.85,18,6,19,0.00
2013-2-10,35,15,2,13,6,-2,92,71,40,30.56,30.05,23,1,26,0.00
2013-2-11,42,35,16,41,32,10,100,91,59,30.30,29.64,20,6,24,0.20
2013-2-12,39,38,35,36,30,25,96,76,66,29.96,29.69,26,4,26,0.00
2013-2-13,41,36,30,29,25,20,85,68,50,29.91,29.72,11,2,13,0.00
2013-2-14,41,34,25,29,25,20,92,73,58,29.97,29.72,15,1,19,0.00
2013-2-15,50,41,31,33,29,19,99,66,45,30.04,29.88,15,5,16,0.00
2013-2-16,33,30,22,31,19,8,100,68,49,30.03,29.74,22,4,22,0.00
2013-2-17,24,20,13,11,5,-1,69,57,39,30.22,29.68,34,9,37,0.00
2013-2-18,28,19,10,13,4,-1,69,54,36,30.25,29.98,24,5,26,0.00
2013-2-19,44,32,21,38,24,10,100,76,51,30.18,29.62,29,5,35,0.11
2013-2-20,34,29,26,27,16,9,80,62,43,29.98,29.66,29,8,33,0.00
2013-2-21,27,22,18,17,13,8,81,71,64,30.45,29.90,28,8,31,0.00
2013-2-22,37,30,21,27,21,16,86,74,61,30.47,30.14,17,4,23,0.00
2013-2-23,38,36,34,38,33,26,100,92,73,30.25,29.82,10,4,12,0.05
2013-2-24,40,35,30,39,32,24,100,92,67,30.11,29.78,22,4,23,0.07
2013-2-25,42,36,26,35,29,24,100,81,61,30.33,29.99,10,1,13,0.00
2013-2-26,45,38,28,35,29,24,97,74,53,30.33,29.78,17,3,18,0.09
2013-2-27,45,38,33,43,36,24,100,95,57,30.05,29.52,16,3,16,0.76
2013-2-28,44,39,36,42,38,34,100,94,80,29.68,29.54,10,2,11,0.14